Time;durP1;ratioP1;P1;durP2;ratioP2;P2;SDS_P1;SDS_P2;PMS_P1;PMS_P2;Temp;Humidity;BMP_temperature;BMP_pressure;BME280_temperature;BME280_humidity;BME280_pressure;Samples;Min_cycle;Max_cycle;Signal;HPM_P1;HPM_P2
2022/08/10 00:00:25;;;;;;;0.50;0.40;;;;;;;-145.06;100.00;60892.56;5979490;23;20004;-90
2022/08/10 00:03:08;;;;;;;0.60;0.50;;;;;;;-145.06;100.00;60892.56;5979443;23;20000;-91
2022/08/10 00:05:48;;;;;;;0.93;0.30;;;;;;;-145.06;100.00;60892.56;5979871;23;20427;-91
2022/08/10 00:08:28;;;;;;;0.57;0.40;;;;;;;-145.06;100.00;60892.56;5979534;23;20004;-90
2022/08/10 00:11:07;;;;;;;1.25;0.52;;;;;;;-145.06;100.00;60892.56;5979606;23;20008;-91
2022/08/10 00:13:47;;;;;;;1.50;0.70;;;;;;;-145.06;100.00;60892.56;5979384;23;20004;-90
2022/08/10 00:16:25;;;;;;;0.70;0.60;;;;;;;-145.06;100.00;60892.56;5979205;23;20000;-90
2022/08/10 00:19:04;;;;;;;0.73;0.50;;;;;;;-145.06;100.00;60892.56;5978973;23;20009;-91
2022/08/10 00:21:44;;;;;;;0.40;0.32;;;;;;;-145.06;100.00;60892.56;5979564;23;20008;-90
2022/08/10 00:24:23;;;;;;;0.50;0.40;;;;;;;-145.06;100.00;60892.56;6011167;23;20009;-90
2022/08/10 00:27:03;;;;;;;0.98;0.60;;;;;;;-145.06;100.00;60892.56;5979058;23;20427;-90
2022/08/10 00:29:42;;;;;;;0.60;0.50;;;;;;;-145.06;100.00;60892.56;5978976;23;20004;-91
2022/08/10 00:32:21;;;;;;;0.57;0.40;;;;;;;-145.06;100.00;60892.56;5979183;23;20008;-89
2022/08/10 00:35:00;;;;;;;0.63;0.47;;;;;;;-145.06;100.00;60892.56;5979498;23;20008;-91
2022/08/10 00:37:39;;;;;;;0.30;0.30;;;;;;;-145.06;100.00;60892.56;6000337;23;20004;-90
2022/08/10 00:40:18;;;;;;;0.53;0.50;;;;;;;-145.06;100.00;60892.56;5978778;23;20009;-89
2022/08/10 00:42:57;;;;;;;1.23;0.50;;;;;;;-145.06;100.00;60892.56;6010791;23;20232;-90
2022/08/10 00:45:36;;;;;;;1.17;0.50;;;;;;;-145.06;100.00;60892.56;5978571;23;20036;-91
2022/08/10 00:48:15;;;;;;;0.80;0.60;;;;;;;-145.06;100.00;60892.56;5979245;23;20005;-92
2022/08/10 00:50:56;;;;;;;0.60;0.60;;;;;;;-145.06;100.00;60892.56;5978911;23;20001;-90
2022/08/10 00:53:35;;;;;;;1.27;0.60;;;;;;;-145.06;100.00;60892.56;5979265;23;20005;-91
2022/08/10 00:56:14;;;;;;;0.32;0.30;;;;;;;-145.06;100.00;60892.56;5978964;23;20004;-90
2022/08/10 00:58:53;;;;;;;0.63;0.40;;;;;;;-145.06;100.00;60892.56;5979182;23;20008;-91
2022/08/10 01:01:32;;;;;;;1.40;0.40;;;;;;;-145.06;100.00;60892.56;5979748;23;20036;-91
2022/08/10 01:04:11;;;;;;;1.13;0.47;;;;;;;-145.06;100.00;60892.56;5979103;23;20236;-90
2022/08/10 01:07:17;;;;;;;0.60;0.50;;;;;;;-145.06;100.00;60892.56;5978840;23;20041;-89
2022/08/10 01:10:04;;;;;;;0.70;0.40;;;;;;;-145.06;100.00;60892.56;5971042;23;20005;-90
2022/08/10 01:12:55;;;;;;;0.40;0.40;;;;;;;-145.06;100.00;60892.56;5977553;23;20032;-90
2022/08/10 01:15:37;;;;;;;0.70;0.50;;;;;;;-145.06;100.00;60892.56;5978260;23;20004;-92
2022/08/10 01:18:40;;;;;;;0.60;0.45;;;;;;;-145.06;100.00;60892.56;5978169;23;20000;-90
2022/08/10 01:22:05;;;;;;;1.00;0.45;;;;;;;-145.06;100.00;60892.56;5978401;23;20009;-91
2022/08/10 01:25:09;;;;;;;1.13;0.63;;;;;;;-145.06;100.00;60892.56;5932280;23;20005;-91
2022/08/10 01:28:00;;;;;;;1.10;0.38;;;;;;;-145.06;100.00;60892.56;5978433;23;20001;-90
2022/08/10 01:30:41;;;;;;;0.52;0.47;;;;;;;-145.06;100.00;60892.56;5978805;23;20344;-89
2022/08/10 01:33:25;;;;;;;1.50;0.60;;;;;;;-145.06;100.00;60892.56;5978512;23;20004;-90
2022/08/10 01:36:11;;;;;;;1.00;0.45;;;;;;;-145.06;100.00;60892.56;5999392;23;20044;-90
2022/08/10 01:38:51;;;;;;;0.73;0.50;;;;;;;-145.06;100.00;60892.56;5970819;23;20005;-90
2022/08/10 01:41:39;;;;;;;0.57;0.50;;;;;;;-145.06;100.00;60892.56;5974868;23;20009;-90
2022/08/10 01:44:29;;;;;;;1.15;0.38;;;;;;;-145.06;100.00;60892.56;5978190;23;20563;-91
2022/08/10 01:50:17;;;;;;;0.95;0.52;;;;;;;-145.06;100.00;60892.56;6010301;23;20005;-90
2022/08/10 01:53:04;;;;;;;1.80;0.60;;;;;;;-145.06;100.00;60892.56;5970317;23;20005;-89
2022/08/10 01:55:45;;;;;;;1.38;0.60;;;;;;;-145.06;100.00;60892.56;5976953;23;20001;-90
2022/08/10 01:58:26;;;;;;;1.13;0.50;;;;;;;-145.06;100.00;60892.56;5978442;23;20004;-89
2022/08/10 02:01:08;;;;;;;0.50;0.40;;;;;;;-145.06;100.00;60892.56;5977889;23;20009;-90
2022/08/10 02:03:49;;;;;;;0.70;0.50;;;;;;;-145.06;100.00;60892.56;5978354;23;20005;-91
2022/08/10 02:06:31;;;;;;;0.40;0.32;;;;;;;-145.06;100.00;60892.56;5977155;23;20008;-90
2022/08/10 02:09:19;;;;;;;1.02;0.60;;;;;;;-145.06;100.00;60892.56;5976215;23;20083;-90
2022/08/10 02:12:04;;;;;;;1.25;0.52;;;;;;;-145.06;100.00;60892.56;5977088;23;20028;-90
2022/08/10 02:14:51;;;;;;;1.10;0.50;;;;;;;-145.06;100.00;60892.56;5977160;23;20020;-90
2022/08/10 02:17:40;;;;;;;0.45;0.40;;;;;;;-145.06;100.00;60892.56;5975928;23;20009;-92
2022/08/10 02:20:22;;;;;;;0.70;0.50;;;;;;;-145.06;100.00;60892.56;5976135;23;20008;-90
2022/08/10 02:23:07;;;;;;;1.65;0.50;;;;;;;-145.06;100.00;60892.56;5978046;23;20009;-89
2022/08/10 02:25:47;;;;;;;1.23;0.43;;;;;;;-145.06;100.00;60892.56;5977980;23;20060;-89
2022/08/10 02:28:30;;;;;;;4.63;0.50;;;;;;;-145.06;100.00;60892.56;6010883;23;20012;-89
2022/08/10 02:31:14;;;;;;;0.57;0.40;;;;;;;-145.06;100.00;60892.56;5979296;23;20167;-90
2022/08/10 02:33:56;;;;;;;0.63;0.50;;;;;;;-145.06;100.00;60892.56;5971642;23;20008;-91
2022/08/10 02:36:37;;;;;;;1.02;0.55;;;;;;;-145.06;100.00;60892.56;5976168;23;20008;-89
2022/08/10 02:39:17;;;;;;;1.10;0.60;;;;;;;-145.06;100.00;60892.56;5978906;23;20454;-90
2022/08/10 02:42:18;;;;;;;1.10;0.47;;;;;;;-145.06;100.00;60892.56;5979215;23;20305;-90
2022/08/10 02:45:03;;;;;;;0.95;0.50;;;;;;;-145.06;100.00;60892.56;5979972;23;20001;-89
2022/08/10 02:47:49;;;;;;;0.60;0.50;;;;;;;-145.06;100.00;60892.56;5980618;23;20009;-91
2022/08/10 02:50:36;;;;;;;1.02;0.52;;;;;;;-145.06;100.00;60892.56;5980752;23;20108;-89
2022/08/10 02:53:31;;;;;;;0.50;0.40;;;;;;;-145.06;100.00;60892.56;5999916;23;19997;-89
2022/08/10 02:56:51;;;;;;;0.95;0.50;;;;;;;-145.06;100.00;60892.56;5999140;23;20013;-90
2022/08/10 02:59:33;;;;;;;;;;;;;;;-145.06;100.00;60892.56;5979705;23;20444;-90
2022/08/10 03:02:33;;;;;;;1.15;0.60;;;;;;;-145.06;100.00;60892.56;5979181;23;19931;-89
2022/08/10 03:05:13;;;;;;;0.77;0.47;;;;;;;-145.06;100.00;60892.56;5979325;23;20001;-90
2022/08/10 03:07:59;;;;;;;0.82;0.43;;;;;;;-145.06;100.00;60892.56;5979375;23;20064;-89
2022/08/10 03:10:40;;;;;;;1.20;0.40;;;;;;;-145.06;100.00;60892.56;5979777;23;20004;-89
2022/08/10 03:13:22;;;;;;;0.30;0.30;;;;;;;-145.06;100.00;60892.56;5979526;23;20008;-91
2022/08/10 03:16:03;;;;;;;1.30;0.68;;;;;;;-145.06;100.00;60892.56;5979367;23;20036;-91
2022/08/10 03:18:42;;;;;;;;;;;;;;;-145.06;100.00;60892.56;5979745;23;20004;-89
2022/08/10 03:21:23;;;;;;;0.65;0.32;;;;;;;-145.06;100.00;60892.56;5979976;23;19904;-89
2022/08/10 03:24:04;;;;;;;1.10;0.50;;;;;;;-145.06;100.00;60892.56;5979068;23;20004;-89
2022/08/10 03:26:43;;;;;;;0.70;0.60;;;;;;;-145.06;100.00;60892.56;5978649;23;20005;-89
2022/08/10 03:29:23;;;;;;;1.00;0.60;;;;;;;-145.06;100.00;60892.56;5979042;23;20009;-89
2022/08/10 03:32:12;;;;;;;0.80;0.60;;;;;;;-145.06;100.00;60892.56;5979149;23;20028;-92
2022/08/10 04:16:11;;;;;;;0.75;0.60;;;;;;;-145.06;100.00;60892.56;5907990;23;20010;-90
2022/08/10 04:19:14;;;;;;;0.80;0.50;;;;;;;-145.06;100.00;60892.56;5818749;23;20078;-90
2022/08/10 07:05:04;;;;;;;0.50;0.43;;;;;;;-145.06;100.00;60892.56;5949539;23;20006;-91
2022/08/10 07:07:48;;;;;;;1.27;0.60;;;;;;;-145.06;100.00;60892.56;5919878;23;20005;-91
2022/08/10 07:11:10;;;;;;;0.90;0.60;;;;;;;-145.06;100.00;60892.56;5920164;23;20037;-89
2022/08/10 07:14:39;;;;;;;1.10;0.60;;;;;;;-145.06;100.00;60892.56;5921860;23;20392;-89
2022/08/10 07:17:20;;;;;;;0.45;0.40;;;;;;;-145.06;100.00;60892.56;5920915;23;20002;-89
2022/08/10 07:25:01;;;;;;;0.70;0.50;;;;;;;-145.06;100.00;60892.56;5921931;23;20010;-90
2022/08/10 08:20:49;;;;;;;;;;;;;;;;;;;;;
2022/08/10 08:38:00;;;;;;;0.65;0.50;;;;;;;-145.06;100.00;60892.56;5990833;23;20600;-89
2022/08/10 08:40:43;;;;;;;0.70;0.65;;;;;;;-145.06;100.00;60892.56;5979223;23;20016;-90
2022/08/10 08:43:45;;;;;;;1.02;0.50;;;;;;;-145.06;100.00;60892.56;6000141;23;20004;-90
2022/08/10 08:47:01;;;;;;;0.40;0.40;;;;;;;-145.06;100.00;60892.56;5949732;23;20452;-89
2022/08/10 08:50:03;;;;;;;0.70;0.50;;;;;;;-145.06;100.00;60892.56;5971094;23;20005;-89
2022/08/10 08:52:52;;;;;;;1.05;0.75;;;;;;;-145.06;100.00;60892.56;5971317;23;20005;-90
2022/08/10 08:55:52;;;;;;;0.70;0.60;;;;;;;-145.06;100.00;60892.56;5950714;23;20009;-90
2022/08/10 08:58:31;;;;;;;0.60;0.47;;;;;;;-145.06;100.00;60892.56;5951961;23;20005;-92
2022/08/10 09:01:48;;;;;;;0.93;0.80;;;;;;;-145.06;100.00;60892.56;5996032;23;20001;-92
2022/08/10 09:04:55;;;;;;;0.63;0.47;;;;;;;-145.06;100.00;60892.56;5965361;23;20013;-92
2022/08/10 09:07:49;;;;;;;0.60;0.50;;;;;;;-145.06;100.00;60892.56;5974633;23;20005;-91
2022/08/10 09:10:51;;;;;;;0.88;0.50;;;;;;;-145.06;100.00;60892.56;5970988;23;20005;-91
2022/08/10 09:13:43;;;;;;;0.85;0.45;;;;;;;-145.06;100.00;60892.56;5981923;23;20024;-92
2022/08/10 09:16:24;;;;;;;1.83;0.68;;;;;;;-145.06;100.00;60892.56;5950087;23;20005;-92
2022/08/10 09:19:47;;;;;;;0.90;0.50;;;;;;;-145.06;100.00;60892.56;5949337;23;20305;-89
2022/08/10 09:22:45;;;;;;;2.38;0.45;;;;;;;-145.06;100.00;60892.56;5949391;23;20004;-89
2022/08/10 09:25:33;;;;;;;0.80;0.50;;;;;;;-145.06;100.00;60892.56;5970607;23;20001;-89
2022/08/10 09:28:23;;;;;;;0.70;0.60;;;;;;;-145.06;100.00;60892.56;5949073;23;20001;-89
2022/08/10 09:31:09;;;;;;;1.02;0.50;;;;;;;-145.06;100.00;60892.56;5948178;23;20036;-91
2022/08/10 09:34:01;;;;;;;1.65;0.63;;;;;;;-145.06;100.00;60892.56;5949557;23;20317;-90
2022/08/10 09:37:04;;;;;;;0.60;0.40;;;;;;;-145.06;100.00;60892.56;5970489;23;20060;-90
2022/08/10 09:40:11;;;;;;;0.77;0.50;;;;;;;-145.06;100.00;60892.56;5948236;23;20009;-91
2022/08/10 09:43:20;;;;;;;0.77;0.50;;;;;;;-145.06;100.00;60892.56;5981595;23;20431;-89
2022/08/10 09:46:24;;;;;;;0.70;0.50;;;;;;;-145.06;100.00;60892.56;5924408;23;20004;-88
2022/08/10 09:49:19;;;;;;;0.75;0.70;;;;;;;-145.06;100.00;60892.56;5979935;23;20001;-89
2022/08/10 09:52:19;;;;;;;10.85;1.15;;;;;;;-145.06;100.00;60892.56;5947824;23;20005;-91
2022/08/10 09:55:25;;;;;;;1.50;0.60;;;;;;;-145.06;100.00;60892.56;5947074;23;20028;-89
2022/08/10 09:58:41;;;;;;;0.70;0.60;;;;;;;-145.06;100.00;60892.56;5947665;23;20072;-90
2022/08/10 10:01:26;;;;;;;1.90;0.60;;;;;;;-145.06;100.00;60892.56;5970555;23;20087;-90
2022/08/10 11:51:23;;;;;;;0.70;0.38;;;;;;;-145.06;100.00;60892.56;6000601;23;20059;-90
2022/08/10 11:54:08;;;;;;;1.38;0.50;;;;;;;-145.06;100.00;60892.56;5977431;23;20016;-91
2022/08/10 12:01:16;;;;;;;0.30;0.30;;;;;;;-145.06;100.00;60892.56;6007846;23;20168;-89
2022/08/10 12:03:58;;;;;;;0.40;0.20;;;;;;;-145.06;100.00;60892.56;5957548;23;20005;-90
2022/08/10 12:10:24;;;;;;;0.40;0.40;;;;;;;-145.06;100.00;60892.56;6009089;23;20001;-91
2022/08/10 12:16:33;;;;;;;0.20;0.20;;;;;;;-145.06;100.00;60892.56;5995834;23;20049;-88
2022/08/10 12:19:23;;;;;;;0.20;0.20;;;;;;;-145.06;100.00;60892.56;5975856;23;20297;-91
2022/08/10 12:22:18;;;;;;;0.40;0.30;;;;;;;-145.06;100.00;60892.56;5977025;23;20024;-88
2022/08/10 12:25:01;;;;;;;0.20;0.20;;;;;;;-145.06;100.00;60892.56;5980602;23;20009;-90
2022/08/10 12:27:49;;;;;;;0.60;0.30;;;;;;;-145.06;100.00;60892.56;6003807;23;19997;-89
2022/08/10 12:30:34;;;;;;;0.20;0.20;;;;;;;-145.06;100.00;60892.56;5990200;23;20329;-87
2022/08/10 12:33:31;;;;;;;0.45;0.40;;;;;;;-145.06;100.00;60892.56;5947183;23;20037;-89
2022/08/10 12:36:18;;;;;;;0.80;0.30;;;;;;;-145.06;100.00;60892.56;5946116;23;20001;-88
2022/08/10 12:39:37;;;;;;;0.32;0.32;;;;;;;-145.06;100.00;60892.56;5946673;23;20001;-89
2022/08/10 12:42:40;;;;;;;0.55;0.40;;;;;;;-145.06;100.00;60892.56;5946613;23;20036;-90
2022/08/10 12:45:33;;;;;;;0.30;0.30;;;;;;;-145.06;100.00;60892.56;5947378;23;20001;-89
2022/08/10 12:48:49;;;;;;;;;;;;;;;;;;;;;
2022/08/10 12:51:30;;;;;;;0.50;0.45;;;;;;;-145.06;100.00;60892.56;5980258;23;20065;-89
2022/08/10 12:54:12;;;;;;;1.60;0.38;;;;;;;-145.06;100.00;60892.56;5981944;23;20032;-88
2022/08/10 12:56:59;;;;;;;0.38;0.28;;;;;;;-145.06;100.00;60892.56;5948564;23;20008;-89
2022/08/10 12:59:47;;;;;;;0.20;0.20;;;;;;;-145.06;100.00;60892.56;5948898;23;20001;-89
2022/08/10 13:02:37;;;;;;;0.30;0.30;;;;;;;-145.06;100.00;60892.56;5980476;23;20016;-94
2022/08/10 13:05:17;;;;;;;0.30;0.20;;;;;;;-145.06;100.00;60892.56;5948355;23;20439;-90
2022/08/10 13:18:59;;;;;;;0.28;0.20;;;;;;;-145.06;100.00;60892.56;6010876;23;20020;-91
2022/08/10 13:21:42;;;;;;;0.20;0.20;;;;;;;-145.06;100.00;60892.56;5980209;23;20248;-92
2022/08/10 13:57:17;;;;;;;0.98;0.50;;;;;;;-145.06;100.00;60892.56;5995002;23;20082;-90
2022/08/10 14:00:24;;;;;;;0.43;0.30;;;;;;;-145.06;100.00;60892.56;5969904;23;20005;-90
2022/08/10 14:27:22;;;;;;;0.50;0.30;;;;;;;-145.06;100.00;60892.56;5889095;23;20237;-87
2022/08/10 14:30:03;;;;;;;0.60;0.30;;;;;;;-145.06;100.00;60892.56;5883820;23;20169;-86
2022/08/10 14:32:46;;;;;;;0.20;0.20;;;;;;;-145.06;100.00;60892.56;5904638;23;20008;-86
2022/08/10 14:35:27;;;;;;;0.40;0.30;;;;;;;-145.06;100.00;60892.56;5963579;23;20009;-87
2022/08/10 14:38:11;;;;;;;0.45;0.30;;;;;;;-145.06;100.00;60892.56;5975259;23;20033;-87
2022/08/10 14:40:53;;;;;;;0.50;0.43;;;;;;;-145.06;100.00;60892.56;5963206;23;20012;-86
2022/08/10 14:43:40;;;;;;;0.20;0.20;;;;;;;-145.06;100.00;60892.56;5963515;23;20013;-86
2022/08/10 14:46:22;;;;;;;0.57;0.40;;;;;;;-145.06;100.00;60892.56;5967544;23;20004;-86
2022/08/10 14:49:02;;;;;;;0.38;0.20;;;;;;;-145.06;100.00;60892.56;5967572;23;20225;-86
2022/08/10 14:51:45;;;;;;;0.75;0.30;;;;;;;-145.06;100.00;60892.56;5966683;23;20013;-88
2022/08/10 14:54:27;;;;;;;0.38;0.32;;;;;;;-145.06;100.00;60892.56;5945547;23;20082;-87
2022/08/10 14:57:09;;;;;;;0.40;0.32;;;;;;;-145.06;100.00;60892.56;5963883;23;20037;-88
2022/08/10 14:59:51;;;;;;;0.50;0.20;;;;;;;-145.06;100.00;60892.56;5962182;23;20005;-86
2022/08/10 15:02:37;;;;;;;0.50;0.20;;;;;;;-145.06;100.00;60892.56;5961657;23;20009;-87
2022/08/10 15:05:18;;;;;;;0.40;0.30;;;;;;;-145.06;100.00;60892.56;5962920;23;20010;-85
2022/08/10 15:07:58;;;;;;;0.52;0.40;;;;;;;-145.06;100.00;60892.56;5960194;23;20033;-86
2022/08/10 15:10:38;;;;;;;0.50;0.40;;;;;;;-145.06;100.00;60892.56;5973031;23;20727;-87
2022/08/10 15:13:18;;;;;;;0.47;0.30;;;;;;;-145.06;100.00;60892.56;5963508;23;20083;-88
2022/08/10 15:16:04;;;;;;;0.50;0.38;;;;;;;-145.06;100.00;60892.56;5975538;23;20009;-87
2022/08/10 15:18:46;;;;;;;0.98;0.40;;;;;;;-145.06;100.00;60892.56;5964303;23;20009;-88
2022/08/10 15:21:29;;;;;;;0.40;0.40;;;;;;;-145.06;100.00;60892.56;5941993;23;20008;-86
2022/08/10 15:24:58;;;;;;;0.22;0.20;;;;;;;-145.06;100.00;60892.56;5942201;23;20013;-86
2022/08/10 15:27:17;;;;;;;0.30;0.20;;;;;;;-145.06;100.00;60892.56;5963375;23;20009;-84
2022/08/10 15:29:57;;;;;;;0.20;0.20;;;;;;;-145.06;100.00;60892.56;5961061;23;20009;-85
2022/08/10 15:38:55;;;;;;;0.82;0.30;;;;;;;-145.06;100.00;60892.56;5971995;23;20581;-85
2022/08/10 15:41:40;;;;;;;10.30;0.70;;;;;;;-145.06;100.00;60892.56;5939049;23;20084;-86
2022/08/10 15:44:20;;;;;;;0.60;0.30;;;;;;;-145.06;100.00;60892.56;5962016;23;20013;-85
2022/08/10 15:47:02;;;;;;;0.60;0.20;;;;;;;-145.06;100.00;60892.56;5974062;23;20080;-85
2022/08/10 15:50:03;;;;;;;0.32;0.30;;;;;;;-145.06;100.00;60892.56;5962339;23;20337;-85
2022/08/10 15:52:52;;;;;;;0.38;0.22;;;;;;;-145.06;100.00;60892.56;5972101;23;20001;-84
2022/08/10 15:55:51;;;;;;;0.40;0.30;;;;;;;-145.06;100.00;60892.56;5963222;23;20008;-85
2022/08/10 15:58:37;;;;;;;;;;;;;;;-145.06;100.00;60892.56;5964015;23;20032;-84
2022/08/10 16:01:22;;;;;;;0.32;0.30;;;;;;;-145.06;100.00;60892.56;5965121;23;19931;-84
2022/08/10 16:04:06;;;;;;;0.32;0.32;;;;;;;-145.06;100.00;60892.56;5966673;23;20008;-86
2022/08/10 16:06:52;;;;;;;0.68;0.40;;;;;;;-145.06;100.00;60892.56;5980667;23;19997;-87
2022/08/10 16:09:36;;;;;;;0.30;0.30;;;;;;;-145.06;100.00;60892.56;5979525;23;20017;-88
2022/08/10 16:12:31;;;;;;;0.30;0.30;;;;;;;-145.06;100.00;60892.56;5966263;23;20009;-88
2022/08/10 16:15:14;;;;;;;0.30;0.30;;;;;;;-145.06;100.00;60892.56;5962210;23;20702;-87
2022/08/10 16:17:54;;;;;;;0.50;0.30;;;;;;;-145.06;100.00;60892.56;5959186;23;20696;-87
2022/08/10 16:20:47;;;;;;;0.40;0.30;;;;;;;-145.06;100.00;60892.56;5962174;23;20013;-89
2022/08/10 16:23:58;;;;;;;0.50;0.30;;;;;;;-145.06;100.00;60892.56;5962762;23;20001;-90
2022/08/10 16:26:43;;;;;;;0.45;0.40;;;;;;;-145.06;100.00;60892.56;5974677;23;20009;-89
2022/08/10 16:29:25;;;;;;;0.60;0.40;;;;;;;-145.06;100.00;60892.56;5974531;23;20013;-90
2022/08/10 16:32:06;;;;;;;0.30;0.30;;;;;;;-145.06;100.00;60892.56;5962540;23;20005;-87
2022/08/10 16:34:49;;;;;;;0.63;0.50;;;;;;;-145.06;100.00;60892.56;5959250;23;20613;-87
2022/08/10 16:37:35;;;;;;;0.20;0.20;;;;;;;-145.06;100.00;60892.56;5961246;23;20376;-88
2022/08/10 16:40:18;;;;;;;0.20;0.20;;;;;;;-145.06;100.00;60892.56;5958816;23;20029;-87
2022/08/10 16:43:00;;;;;;;0.65;0.57;;;;;;;-145.06;100.00;60892.56;5959324;23;20013;-87
2022/08/10 16:45:44;;;;;;;1.27;0.38;;;;;;;-145.06;100.00;60892.56;5971157;23;20013;-86
2022/08/10 16:48:29;;;;;;;0.50;0.40;;;;;;;-145.06;100.00;60892.56;5971610;23;20005;-87
2022/08/10 16:51:10;;;;;;;0.47;0.40;;;;;;;-145.06;100.00;60892.56;5972094;23;20008;-89
2022/08/10 16:53:50;;;;;;;0.40;0.30;;;;;;;-145.06;100.00;60892.56;5942691;23;20436;-88
2022/08/10 16:56:34;;;;;;;0.50;0.30;;;;;;;-145.06;100.00;60892.56;5973993;23;20146;-86
2022/08/10 16:59:15;;;;;;;0.50;0.30;;;;;;;-145.06;100.00;60892.56;5973562;23;20017;-89
2022/08/10 17:01:54;;;;;;;0.30;0.30;;;;;;;-145.06;100.00;60892.56;5974019;23;20013;-88
2022/08/10 17:04:35;;;;;;;0.40;0.40;;;;;;;-145.06;100.00;60892.56;5975908;23;20008;-89
2022/08/10 17:07:16;;;;;;;0.52;0.32;;;;;;;-145.06;100.00;60892.56;5965165;23;20431;-91
2022/08/10 17:09:57;;;;;;;0.50;0.40;;;;;;;-145.06;100.00;60892.56;5975762;23;20044;-92
2022/08/10 17:12:38;;;;;;;0.60;0.50;;;;;;;-145.06;100.00;60892.56;5973640;23;20013;-86
2022/08/10 17:15:24;;;;;;;0.75;0.40;;;;;;;-145.06;100.00;60892.56;5972305;23;20013;-87
2022/08/10 17:18:04;;;;;;;0.38;0.30;;;;;;;-145.06;100.00;60892.56;5961885;23;20009;-86
2022/08/10 17:20:43;;;;;;;0.55;0.50;;;;;;;-145.06;100.00;60892.56;5964947;23;20032;-89
2022/08/10 17:23:26;;;;;;;0.35;0.35;;;;;;;-145.06;100.00;60892.56;5963934;23;20005;-89
2022/08/10 17:26:13;;;;;;;1.05;0.30;;;;;;;-145.06;100.00;60892.56;5963747;23;20009;-90
2022/08/10 17:28:55;;;;;;;0.50;0.40;;;;;;;32.66;100.00;60892.56;5974726;23;20009;-89
2022/08/10 17:31:43;;;;;;;0.40;0.40;;;;;;;-145.06;100.00;60892.56;5974825;23;20009;-90
2022/08/10 17:34:45;;;;;;;0.63;0.50;;;;;;;-145.06;100.00;60892.56;5966002;23;20088;-92
2022/08/10 17:37:27;;;;;;;1.10;0.57;;;;;;;-145.06;100.00;60892.56;5974688;23;20001;-87
2022/08/10 17:40:09;;;;;;;0.38;0.35;;;;;;;-145.06;100.00;60892.56;5938570;23;20004;-87
2022/08/10 17:42:50;;;;;;;1.13;0.70;;;;;;;-145.06;100.00;60892.56;5970227;23;20791;-86
2022/08/10 17:45:32;;;;;;;0.55;0.50;;;;;;;-145.06;100.00;60892.56;5971162;23;20013;-87
2022/08/10 17:48:13;;;;;;;1.50;0.50;;;;;;;-145.06;100.00;60892.56;5960195;23;20013;-85
2022/08/10 17:50:53;;;;;;;1.13;0.30;;;;;;;-145.06;100.00;60892.56;5960184;23;20013;-88
2022/08/10 17:53:35;;;;;;;0.43;0.40;;;;;;;-145.06;100.00;60892.56;5959393;23;20017;-87
2022/08/10 17:56:19;;;;;;;3.97;0.50;;;;;;;-145.06;100.00;60892.56;5938047;23;20008;-86
2022/08/10 17:59:04;;;;;;;0.30;0.30;;;;;;;-145.06;100.00;60892.56;5958081;23;20033;-86
2022/08/10 18:01:44;;;;;;;1.13;0.52;;;;;;;-145.06;100.00;60892.56;5970951;23;20436;-87
2022/08/10 18:04:27;;;;;;;0.60;0.40;;;;;;;-145.06;100.00;60892.56;5958830;23;20016;-86
2022/08/10 18:07:07;;;;;;;0.93;0.55;;;;;;;-145.06;100.00;60892.56;5971782;23;20009;-86
2022/08/10 18:09:51;;;;;;;0.90;0.50;;;;;;;-145.06;100.00;60892.56;5969181;23;20012;-86
2022/08/10 18:12:38;;;;;;;0.40;0.40;;;;;;;-145.06;100.00;60892.56;5970667;23;20005;-87
2022/08/10 18:15:21;;;;;;;0.40;0.40;;;;;;;-145.06;100.00;60892.56;5961442;23;20013;-86
2022/08/10 18:18:01;;;;;;;0.52;0.40;;;;;;;-145.06;100.00;60892.56;5971216;23;20005;-86
2022/08/10 18:20:42;;;;;;;0.32;0.28;;;;;;;-145.06;100.00;60892.56;5970036;23;20008;-87
2022/08/10 18:23:25;;;;;;;0.38;0.30;;;;;;;-145.06;100.00;60892.56;5953821;23;20009;-86
2022/08/10 18:26:10;;;;;;;1.90;0.40;;;;;;;-145.06;100.00;60892.56;5964465;23;20703;-86
2022/08/10 18:28:54;;;;;;;0.50;0.50;;;;;;;-145.06;100.00;60892.56;5956507;23;20013;-86
2022/08/10 18:31:34;;;;;;;0.60;0.50;;;;;;;-145.06;100.00;60892.56;5960659;23;20013;-86
2022/08/10 18:34:19;;;;;;;0.40;0.40;;;;;;;-145.06;100.00;60892.56;5957988;23;20674;-86
2022/08/10 18:37:01;;;;;;;0.38;0.38;;;;;;;-145.06;100.00;60892.56;5959464;23;20009;-85
2022/08/10 18:39:44;;;;;;;0.52;0.32;;;;;;;-145.06;100.00;60892.56;5960980;23;20028;-86
2022/08/10 18:42:53;;;;;;;2.70;0.75;;;;;;;-145.06;100.00;60892.56;5961847;23;20005;-86
2022/08/10 18:45:33;;;;;;;1.38;0.50;;;;;;;-145.06;100.00;60892.56;5967966;23;20009;-86
2022/08/10 18:48:17;;;;;;;0.50;0.40;;;;;;;-145.06;100.00;60892.56;5959065;23;20013;-85
2022/08/10 18:50:58;;;;;;;0.93;0.40;;;;;;;-145.06;100.00;60892.56;5961238;23;20004;-87
2022/08/10 18:53:52;;;;;;;0.80;0.55;;;;;;;-145.06;100.00;60892.56;5955617;23;20013;-86
2022/08/10 18:56:55;;;;;;;1.40;0.50;;;;;;;-145.06;100.00;60892.56;5967930;23;20008;-86
2022/08/10 18:59:41;;;;;;;0.95;0.50;;;;;;;-145.06;100.00;60892.56;5971912;23;20005;-86
2022/08/10 19:02:57;;;;;;;1.40;0.70;;;;;;;-145.06;100.00;60892.56;5958988;23;20641;-85
2022/08/10 19:05:50;;;;;;;0.60;0.40;;;;;;;-145.06;100.00;60892.56;5961416;23;19997;-86
2022/08/10 19:09:03;;;;;;;0.50;0.30;;;;;;;-145.06;100.00;60892.56;5972315;23;20321;-86
2022/08/10 19:12:05;;;;;;;1.02;0.35;;;;;;;-145.06;100.00;60892.56;5959956;23;20666;-86
2022/08/10 19:14:53;;;;;;;1.08;0.40;;;;;;;-145.06;100.00;60892.56;5941871;23;20032;-86
2022/08/10 19:17:51;;;;;;;0.88;0.30;;;;;;;-145.06;100.00;60892.56;5971344;23;20036;-86
2022/08/10 19:20:53;;;;;;;0.52;0.38;;;;;;;-145.06;100.00;60892.56;5967844;23;20005;-86
2022/08/10 19:23:38;;;;;;;1.08;0.40;;;;;;;-145.06;100.00;60892.56;5959660;23;20013;-86
2022/08/10 19:26:20;;;;;;;0.65;0.40;;;;;;;-145.06;100.00;60892.56;5971949;23;20087;-86
2022/08/10 19:29:31;;;;;;;1.63;0.70;;;;;;;-145.06;100.00;60892.56;5923794;23;20086;-87
2022/08/10 19:32:30;;;;;;;1.45;0.47;;;;;;;-145.06;100.00;60892.56;5926236;23;20015;-87
2022/08/10 19:35:25;;;;;;;0.65;0.32;;;;;;;-145.06;100.00;60892.56;5927827;23;20082;-87
2022/08/10 19:38:26;;;;;;;0.35;0.30;;;;;;;-145.06;100.00;60892.56;5929853;23;20007;-87
2022/08/10 19:41:29;;;;;;;1.10;0.30;;;;;;;-145.06;100.00;60892.56;5929109;23;20007;-86
2022/08/10 19:44:14;;;;;;;0.57;0.40;;;;;;;-145.06;100.00;60892.56;5945572;23;20000;-88
2022/08/10 19:47:01;;;;;;;2.80;0.43;;;;;;;-145.06;100.00;60892.56;5948457;23;20024;-87
2022/08/10 19:50:02;;;;;;;0.50;0.40;;;;;;;-145.06;100.00;60892.56;5941054;23;20017;-87
2022/08/10 19:52:50;;;;;;;1.13;0.70;;;;;;;-145.06;100.00;60892.56;5968061;23;20009;-88
2022/08/10 19:55:42;;;;;;;0.90;0.50;;;;;;;-145.06;100.00;60892.56;5979043;23;20696;-89
2022/08/10 19:58:35;;;;;;;1.40;0.55;;;;;;;-145.06;100.00;60892.56;5967828;23;20005;-88
2022/08/10 20:01:15;;;;;;;1.60;0.40;;;;;;;-145.06;100.00;60892.56;5967410;23;20436;-87
2022/08/10 20:04:01;;;;;;;0.60;0.38;;;;;;;-145.06;100.00;60892.56;5977971;23;20325;-88
2022/08/10 20:06:52;;;;;;;0.20;0.20;;;;;;;-145.06;100.00;60892.56;5964785;23;20009;-87
2022/08/10 20:09:47;;;;;;;0.80;0.38;;;;;;;-145.06;100.00;60892.56;5968550;23;20005;-87
2022/08/10 20:12:41;;;;;;;0.70;0.30;;;;;;;-145.06;100.00;60892.56;5967972;23;20459;-87
2022/08/10 20:15:30;;;;;;;1.02;0.47;;;;;;;-145.06;100.00;60892.56;5967781;23;20017;-88
2022/08/10 20:18:20;;;;;;;0.32;0.20;;;;;;;-145.06;100.00;60892.56;5976890;23;20005;-87
2022/08/10 20:21:13;;;;;;;0.30;0.30;;;;;;;-145.06;100.00;60892.56;5973038;23;20009;-88
2022/08/10 20:23:57;;;;;;;0.35;0.35;;;;;;;-145.06;100.00;60892.56;5946269;23;20013;-88
2022/08/10 20:26:48;;;;;;;3.15;0.40;;;;;;;-145.06;100.00;60892.56;5962324;23;20009;-87
2022/08/10 20:29:38;;;;;;;0.68;0.50;;;;;;;-145.06;100.00;60892.56;5977928;23;20005;-87
2022/08/10 20:32:20;;;;;;;1.15;0.50;;;;;;;-145.06;100.00;60892.56;5975518;23;20005;-88
2022/08/10 20:35:13;;;;;;;2.28;0.50;;;;;;;-145.06;100.00;60892.56;5976835;23;20297;-88
2022/08/10 20:38:08;;;;;;;0.43;0.30;;;;;;;-145.06;100.00;60892.56;5935366;23;20013;-88